Nearby METAR Reports

 

KDAA - Fort Belvoir/Dav, Virginia, USA
Distance from station: SSE 11mi, 18km
Updated: Wed, 13-Dec-2017 4:56am EST
Clear
Clear
 Wind from WNW
Wind: WNW 25 mph , 41 km/h, Gust: 33 mph , 54 km/h
Temperature: 23°F , -5°C
Wind Chill: 7°F , -14°C
Dew Point: -0°F , -18°C
Humidity: 36%
Barometer: 29.79 inHg , 1008.8 hPa
Clouds: Clear
Visibility: 10 miles , 16 km
2017/12/13 09:56 KDAA 130956Z AUTO 30022G29KT 10SM CLR M05/M18 A2979 RMK AO2 SLP092 T10541185 $
KIAD - Wash Dc/Dulles, Virginia, USA
Distance from station: WNW 11mi, 18km
Updated: Wed, 13-Dec-2017 4:52am EST
Few Clouds
Few Clouds
 Wind from W
Wind: W 18 mph , 30 km/h, Gust: 31 mph , 50 km/h
Temperature: 19°F , -7°C
Wind Chill: 4°F , -16°C
Dew Point: -0°F , -18°C
Humidity: 42%
Barometer: 29.80 inHg , 1009.1 hPa
Clouds: Few Clouds
Visibility: 10 miles , 16 km
Cloud details: Few Clouds 6000 ft
2017/12/13 09:52 KIAD 130952Z 28016G27KT 10SM FEW060 M07/M18 A2980 RMK AO2 PK WND 31027/0943 SLP093 T10671183
 
KDCA - Washington/Natl, Washington D.c., USA
Distance from station: E 12mi, 20km
Updated: Wed, 13-Dec-2017 4:52am EST
Few Clouds
Few Clouds
 Wind from W
Wind: W 14 mph , 22 km/h, Gust: 30 mph , 48 km/h
Temperature: 23°F , -5°C
Wind Chill: 11°F , -12°C
Dew Point: -0°F , -18°C
Humidity: 36%
Barometer: 29.80 inHg , 1009.1 hPa
Clouds: Few Clouds
Visibility: 10 miles , 16 km
Cloud details: Few Clouds 6000 ft
2017/12/13 09:52 KDCA 130952Z 28012G26KT 10SM FEW060 M05/M18 A2980 RMK AO2 PK WND 29026/0946 SLP089 T10501178 $
KHEF - Manassas Muni, Virginia, USA
Distance from station: SW 17mi, 27km
Updated: Wed, 13-Dec-2017 4:56am EST
Clear
Clear
 Wind from W
Wind: W 10 mph , 17 km/h, Gust: 18 mph , 30 km/h
Temperature: 21°F , -6°C
Wind Chill: 10°F , -12°C
Dew Point: 1°F , -17°C
Humidity: 42%
Barometer: 29.82 inHg , 1009.8 hPa
Clouds: Clear
Visibility: 10 miles , 16 km
2017/12/13 09:56 KHEF 130956Z AUTO 26009G16KT 220V300 10SM CLR M06/M17 A2982 RMK AO2 SLP110 T10611167 FZRANO
 
KCGS - College Park, Maryland, USA
Distance from station: ENE 20mi, 33km
Updated: Wed, 13-Dec-2017 5:26am EST
Clear
Clear
 Wind from WSW
Wind: WSW 15 mph , 24 km/h, Gust: 25 mph , 41 km/h
Temperature: 21°F , -6°C
Wind Chill: 7°F , -14°C
Dew Point: -0°F , -18°C
Humidity: 38%
Barometer: 29.78 inHg , 1008.5 hPa
Clouds: Clear
Visibility: 10 miles , 16 km
2017/12/13 10:26 KCGS 131026Z AUTO 24013G22KT 10SM CLR M06/M18 A2978 RMK AO1 T10601181
KADW - Andrews Afb, Maryland, USA
Distance from station: E 21mi, 34km
Updated: Wed, 13-Dec-2017 4:56am EST
Clear
Clear
 Wind from WNW
Wind: WNW 22 mph , 35 km/h, Gust: 26 mph , 43 km/h
Temperature: 21°F , -6°C
Wind Chill: 5°F , -15°C
Dew Point: -0°F , -18°C
Humidity: 38%
Barometer: 29.76 inHg , 1007.8 hPa
Clouds: Clear
Visibility: 10 miles , 16 km
2017/12/13 09:56 KADW 130956Z AUTO 29019G23KT 10SM CLR M06/M18 A2976 RMK AO2 PK WND 30029/0857 SLP087 T10611181 $
 
KGAI - Gaithersburg, Maryland, USA
Distance from station: NNE 22mi, 35km
Updated: Wed, 13-Dec-2017 4:56am EST
Mostly cloudy
Mostly cloudy
 Wind from W
Wind: W 14 mph , 22 km/h, Gust: 26 mph , 43 km/h
Temperature: 19°F , -7°C
Wind Chill: 5°F , -15°C
Dew Point: 3°F , -16°C
Humidity: 49%
Barometer: 29.76 inHg , 1007.8 hPa
Clouds: Mostly cloudy
Visibility: 10 miles , 16 km
Cloud details: Mostly cloudy 5500 ft
2017/12/13 09:56 KGAI 130956Z AUTO 28012G23KT 10SM BKN055 M07/M16 A2976 RMK AO2 PK WND 31027/0911 SLP110 T10721161 FZRANO
KJYO - Leesburg/Godfrey, Virginia, USA
Distance from station: NW 22mi, 35km
Updated: Wed, 13-Dec-2017 5:35am EST
Clear
Clear
 Wind from WNW
Wind: WNW 21 mph , 33 km/h, Gust: 30 mph , 48 km/h
Temperature: 23°F , -5°C
Wind Chill: 8°F , -13°C
Dew Point: 5°F , -15°C
Humidity: 46%
Barometer: 29.81 inHg , 1009.5 hPa
Clouds: Clear
Visibility: 10 miles , 16 km
2017/12/13 10:35 KJYO 131035Z AUTO 30018G26KT 10SM CLR M05/M15 A2981 RMK AO2
 
KNYG - Quantico Mcaf, Virginia, USA
Distance from station: S 25mi, 40km
Updated: Wed, 13-Dec-2017 4:56am EST
Clear
Clear
 Wind from NNW
Wind: NNW 9 mph , 15 km/h
Temperature: 23°F , -5°C
Wind Chill: 13°F , -11°C
Dew Point: 1°F , -17°C
Humidity: 39%
Barometer: 29.83 inHg , 1010.2 hPa
Clouds: Clear
Visibility: 10 miles , 16 km
2017/12/13 09:56 KNYG 130956Z AUTO 33008KT 10SM CLR M05/M17 A2983 RMK AO2 SLP103 T10501172
KFME - Fort Meade, Maryland, USA
Distance from station: ENE 31mi, 49km
Updated: Wed, 13-Dec-2017 5:24am EST
Clear
Clear
 Wind from W
Wind: W 16 mph , 26 km/h, Gust: 26 mph , 43 km/h
Temperature: 21°F , -6°C
Wind Chill: 7°F , -14°C
Dew Point: 3°F , -16°C
Humidity: 45%
Barometer: 29.79 inHg , 1008.8 hPa
Clouds: Clear
Visibility: 10 miles , 16 km
2017/12/13 10:24 KFME 131024Z AUTO 28014G23KT 240V300 10SM CLR M06/M16 A2979 RMK AO1
 
KHWY - Warrenton, Virginia, USA
Distance from station: SW 31mi, 50km
Updated: Wed, 13-Dec-2017 5:35am EST
Clear
Clear
 Wind from W
Wind: W 8 mph , 13 km/h
Temperature: 23°F , -5°C
Wind Chill: 14°F , -10°C
Dew Point: -0°F , -18°C
Humidity: 36%
Barometer: 29.82 inHg , 1009.8 hPa
Clouds: Clear
Visibility: 10 miles , 16 km
2017/12/13 10:35 KHWY 131035Z AUTO 28007KT 10SM CLR M05/M18 A2982 RMK AO2 T10491178
KRMN - Stafford Regnl, Virginia, USA
Distance from station: SSW 33mi, 54km
Updated: Wed, 13-Dec-2017 5:35am EST
Partly cloudy
Partly cloudy
 Wind from W
Wind: W 5 mph , 7 km/h
Temperature: 18°F , -8°C
Wind Chill: 11°F , -12°C
Dew Point: 5°F , -15°C
Humidity: 58%
Barometer: 29.87 inHg , 1011.5 hPa
Clouds: Partly cloudy
Visibility: 10 miles , 16 km
Cloud details: Partly cloudy 6500 ft
2017/12/13 10:35 KRMN 131035Z AUTO 28004KT 10SM SCT065 M08/M15 A2987 RMK AO2 T10831152
 
KBWI - Balto/Wash Intl, Maryland, USA
Distance from station: NE 38mi, 60km
Updated: Wed, 13-Dec-2017 4:54am EST
Few Clouds
Few Clouds
 Wind from W
Wind: W 20 mph , 31 km/h, Gust: 32 mph , 52 km/h
Temperature: 19°F , -7°C
Wind Chill: 3°F , -16°C
Dew Point: 1°F , -17°C
Humidity: 45%
Barometer: 29.74 inHg , 1007.1 hPa
Clouds: Few Clouds
Visibility: 10 miles , 16 km
Cloud details: Few Clouds 5500 ft
2017/12/13 09:54 KBWI 130954Z 28017G28KT 10SM FEW055 M07/M17 A2974 RMK AO2 PK WND 28028/0911 SLP073 T10671167
KFDK - Frederick, Maryland, USA
Distance from station: N 39mi, 63km
Updated: Wed, 13-Dec-2017 5:25am EST
Partly cloudy
Partly cloudy
 Wind from W
Wind: W 21 mph , 33 km/h, Gust: 26 mph , 43 km/h
Temperature: 21°F , -6°C
Wind Chill: 5°F , -15°C
Dew Point: -0°F , -18°C
Humidity: 38%
Barometer: 29.81 inHg , 1009.5 hPa
Clouds: Partly cloudy
Visibility: 10 miles , 16 km
Cloud details: Partly cloudy 4700 ft
2017/12/13 10:25 KFDK 131025Z AUTO 28018G23KT 10SM SCT047 M06/M18 A2981 RMK AO2
 
KCJR - Culpeper, Virginia, USA
Distance from station: SW 40mi, 64km
Updated: Wed, 13-Dec-2017 5:35am EST
Partly cloudy
Partly cloudy
 Wind from NW
Wind: NW 10 mph , 17 km/h, Gust: 16 mph , 26 km/h
Temperature: 25°F , -4°C
Wind Chill: 15°F , -9°C
Dew Point: 3°F , -16°C
Humidity: 39%
Barometer: 29.83 inHg , 1010.2 hPa
Clouds: Partly cloudy
Visibility: 10 miles , 16 km
Cloud details: Partly cloudy 6000 ft
2017/12/13 10:35 KCJR 131035Z AUTO 32009G14KT 290V350 10SM SCT060 M04/M16 A2983 RMK AO2 T10451165
KEZF - Fredericksb/Shan, Virginia, USA
Distance from station: SSW 42mi, 68km
Updated: Wed, 13-Dec-2017 5:35am EST
Clear
Clear
 Wind from NW
Wind: NW 6 mph , 9 km/h
Temperature: 23°F , -5°C
Wind Chill: 16°F , -9°C
Dew Point: 7°F , -14°C
Humidity: 50%
Barometer: 29.83 inHg , 1010.2 hPa
Clouds: Clear
Visibility: 10 miles , 16 km
2017/12/13 10:35 KEZF 131035Z AUTO 31005KT 10SM CLR M05/M14 A2983 RMK AO2 T10491142
 
KNAK - Annapolis/Naval, Maryland, USA
Distance from station: ENE 43mi, 69km
Updated: Wed, 13-Dec-2017 4:54am EST
Clear
Clear
 Wind from WNW
Wind: WNW 15 mph , 24 km/h, Gust: 35 mph , 56 km/h
Temperature: 23°F , -5°C
Wind Chill: 10°F , -12°C
Dew Point: 7°F , -14°C
Humidity: 50%
Barometer: 29.76 inHg , 1007.8 hPa
Clouds: Clear
Visibility: 10 miles , 16 km
2017/12/13 09:54 KNAK 130954Z AUTO 29013G30KT 10SM CLR M05/M14 A2976 RMK AO2 PK WND 30030/0919 SLP078 T10501144
KDMH - Baltimore/Dwntwn, Maryland, USA
Distance from station: NE 45mi, 73km
Updated: Wed, 13-Dec-2017 5:22am EST

 
Temperature: 23°F , -5°C
Dew Point: 1°F , -17°C
Humidity: 39%
Barometer: 29.81 inHg , 1009.5 hPa
2017/12/13 10:22 KDMH 131022Z AUTO M05/M17 A2981 RMK AO1 T10501172